Time;durP1;ratioP1;P1;durP2;ratioP2;P2;SDS_P1;SDS_P2;PMS_P1;PMS_P2;Temp;Humidity;BMP_temperature;BMP_pressure;BME280_temperature;BME280_humidity;BME280_pressure;Samples;Min_cycle;Max_cycle;Signal;HPM_P1;HPM_P2
2022/10/14 00:01:18;;;;;;;9.40;6.60;;;;;;;11.60;100.00;98444.19;15279397;19;20014;-57
2022/10/14 00:06:43;;;;;;;8.60;6.40;;;;;;;11.58;100.00;98436.28;15271270;19;20035;-53
2022/10/14 00:12:09;;;;;;;9.50;6.13;;;;;;;11.61;100.00;98429.69;15275733;19;20030;-58
2022/10/14 00:17:36;;;;;;;10.80;6.25;;;;;;;11.62;100.00;98434.09;15275543;19;20477;-57
2022/10/14 00:23:00;;;;;;;10.55;6.10;;;;;;;11.63;100.00;98435.78;15278068;19;20019;-55
2022/10/14 00:28:25;;;;;;;10.93;6.35;;;;;;;11.63;100.00;98436.59;15272560;19;20017;-54
2022/10/14 00:33:59;;;;;;;9.95;5.95;;;;;;;11.61;100.00;98438.63;15272197;19;20390;-56
2022/10/14 00:39:23;;;;;;;10.60;6.00;;;;;;;11.61;100.00;98435.91;15267435;19;20022;-55
2022/10/14 00:45:08;;;;;;;9.20;6.18;;;;;;;11.60;100.00;98422.59;15269518;19;20496;-53
2022/10/14 00:50:36;;;;;;;8.60;5.82;;;;;;;11.58;100.00;98430.88;15273850;19;20014;-55
2022/10/14 00:56:00;;;;;;;8.88;5.90;;;;;;;11.59;100.00;98423.63;15274104;19;20041;-53
2022/10/14 01:01:26;;;;;;;9.82;6.13;;;;;;;11.59;100.00;98434.41;15273565;19;20011;-56
2022/10/14 01:07:16;;;;;;;9.65;5.85;;;;;;;11.59;100.00;98440.63;15272900;19;20442;-57
2022/10/14 01:12:53;;;;;;;8.82;6.38;;;;;;;11.57;100.00;98439.97;15270891;19;20479;-57
2022/10/14 01:18:28;;;;;;;10.23;6.07;;;;;;;11.57;100.00;98446.22;15265737;19;20378;-53
2022/10/14 01:24:29;;;;;;;10.05;6.43;;;;;;;11.63;100.00;98436.59;15273142;19;20081;-55
2022/10/14 01:30:20;;;;;;;8.18;6.38;;;;;;;11.66;100.00;98438.13;15267967;19;20019;-56
2022/10/14 01:35:57;;;;;;;10.13;6.20;;;;;;;11.68;100.00;98434.25;15270784;19;20014;-55
2022/10/14 01:41:28;;;;;;;10.20;6.30;;;;;;;11.72;100.00;98432.88;15266298;19;20071;-53
2022/10/14 01:46:57;;;;;;;11.23;6.50;;;;;;;11.78;100.00;98419.75;15264161;19;20020;-55
2022/10/14 01:52:26;;;;;;;;;;;;;;;11.80;100.00;98412.31;15271873;19;20363;-54
2022/10/14 01:57:53;;;;;;;8.35;6.05;;;;;;;11.80;100.00;98410.47;15272832;19;19915;-58
2022/10/14 02:03:22;;;;;;;8.52;5.72;;;;;;;11.84;100.00;98416.34;15269401;19;20018;-54
2022/10/14 02:09:00;;;;;;;8.63;6.32;;;;;;;11.85;100.00;98416.19;15266610;19;20369;-55
2022/10/14 02:14:41;;;;;;;9.18;6.00;;;;;;;11.85;100.00;98404.53;15263072;19;20035;-54
2022/10/14 02:20:19;;;;;;;7.60;6.13;;;;;;;11.84;100.00;98395.63;15260513;19;20006;-57
2022/10/14 02:25:49;;;;;;;9.52;5.95;;;;;;;11.85;100.00;98393.75;15268843;19;20011;-56
2022/10/14 02:31:17;;;;;;;11.52;6.00;;;;;;;11.86;100.00;98396.28;15264850;19;20074;-57
2022/10/14 02:36:47;;;;;;;9.50;6.32;;;;;;;11.86;100.00;98390.03;15269801;19;20018;-54
2022/10/14 02:42:14;;;;;;;;;;;;;;;11.88;100.00;98385.31;15267839;19;20025;-55
2022/10/14 02:47:39;;;;;;;9.57;5.80;;;;;;;11.83;100.00;98375.03;15261141;19;19934;-52
2022/10/14 02:53:07;;;;;;;8.30;5.75;;;;;;;11.85;100.00;98372.16;15261157;19;20018;-51
2022/10/14 02:58:31;;;;;;;9.23;6.35;;;;;;;11.83;100.00;98375.03;15264815;19;20377;-55
2022/10/14 03:03:55;;;;;;;9.00;6.00;;;;;;;11.82;100.00;98380.59;15264620;19;20011;-54
2022/10/14 03:09:23;;;;;;;8.30;5.95;;;;;;;11.83;100.00;98374.16;15263103;19;20082;-54
2022/10/14 03:14:48;;;;;;;7.57;5.57;;;;;;;11.83;100.00;98371.47;15280462;19;20025;-55
2022/10/14 03:20:15;;;;;;;8.07;6.05;;;;;;;11.83;100.00;98371.47;15268801;19;20021;-57
2022/10/14 03:25:45;;;;;;;8.43;5.70;;;;;;;11.83;100.00;98364.22;15272866;19;20390;-55
2022/10/14 03:31:17;;;;;;;8.60;5.88;;;;;;;11.84;100.00;98373.16;15276234;19;20014;-56
2022/10/14 03:37:03;;;;;;;9.55;6.28;;;;;;;11.85;100.00;98377.56;15278572;19;20775;-58
2022/10/14 03:42:36;;;;;;;9.95;6.20;;;;;;;11.83;100.00;98371.47;15278469;19;20387;-57
2022/10/14 03:48:00;;;;;;;10.23;6.28;;;;;;;11.78;100.00;98371.16;15276764;19;20011;-58
2022/10/14 03:53:25;;;;;;;7.47;6.50;;;;;;;11.76;100.00;98373.19;15270300;19;20025;-56
2022/10/14 03:58:53;;;;;;;10.18;7.55;;;;;;;11.77;100.00;98372.16;15272736;19;20032;-58
2022/10/14 04:04:20;;;;;;;9.27;6.93;;;;;;;11.76;100.00;98368.63;15278012;19;20010;-56
2022/10/14 04:09:44;;;;;;;13.02;7.45;;;;;;;11.75;100.00;98361.56;15275999;19;20028;-58
2022/10/14 04:15:13;;;;;;;7.85;7.03;;;;;;;11.76;100.00;98357.00;15275853;19;20019;-59
2022/10/14 04:21:08;;;;;;;10.38;7.53;;;;;;;11.76;100.00;98357.00;14763975;19;10001227;-59
2022/10/14 04:26:35;;;;;;;11.20;8.15;;;;;;;11.74;100.00;98353.63;15273772;19;20015;-59
2022/10/14 04:32:10;;;;;;;;;;;;;;;11.78;100.00;98349.56;15270947;19;20658;-58
2022/10/14 04:37:35;;;;;;;9.48;6.97;;;;;;;11.75;100.00;98339.09;15273672;19;19918;-58
2022/10/14 04:43:04;;;;;;;10.18;7.60;;;;;;;11.77;100.00;98326.28;15272862;19;20033;-59
2022/10/14 04:48:32;;;;;;;11.00;7.13;;;;;;;11.76;100.00;98330.81;15268855;19;20026;-57
2022/10/14 04:53:56;;;;;;;11.43;7.28;;;;;;;11.79;100.00;98335.06;15267999;19;20029;-57
2022/10/14 04:59:34;;;;;;;12.40;7.63;;;;;;;11.78;100.00;98336.91;15272327;19;20086;-58
2022/10/14 05:05:21;;;;;;;10.38;7.32;;;;;;;11.75;100.00;98331.88;15272464;19;20052;-59
2022/10/14 05:10:49;;;;;;;9.30;6.88;;;;;;;11.76;100.00;98325.44;15273598;19;20550;-52
2022/10/14 05:16:23;;;;;;;10.30;7.40;;;;;;;11.77;100.00;98326.28;15272187;19;20011;-55
2022/10/14 05:21:53;;;;;;;8.68;6.93;;;;;;;11.76;100.00;98321.91;15273223;19;20095;-56
2022/10/14 05:27:22;;;;;;;7.88;7.00;;;;;;;11.78;100.00;98327.97;15264790;19;20019;-57
2022/10/14 05:32:54;;;;;;;10.77;7.40;;;;;;;11.77;100.00;98326.28;15267202;19;20006;-57
2022/10/14 05:38:25;;;;;;;9.50;7.03;;;;;;;11.79;100.00;98329.66;15265893;19;20372;-57
2022/10/14 05:43:49;;;;;;;9.73;7.40;;;;;;;11.80;100.00;98334.06;15270063;19;20481;-60
2022/10/14 05:49:14;;;;;;;10.05;7.32;;;;;;;11.80;100.00;98331.34;15267806;19;20022;-57
2022/10/14 05:54:44;;;;;;;10.40;7.00;;;;;;;11.82;100.00;98340.94;15267902;19;20391;-58
2022/10/14 06:00:12;;;;;;;9.85;7.00;;;;;;;11.84;100.00;98336.22;15259452;19;20437;-58
2022/10/14 06:05:48;;;;;;;8.18;6.70;;;;;;;11.85;100.00;98334.38;15263992;19;20086;-58
2022/10/14 06:11:16;;;;;;;8.93;6.97;;;;;;;11.88;100.00;98329.47;15272313;19;20051;-58
2022/10/14 06:16:40;;;;;;;9.63;6.45;;;;;;;11.90;100.00;98331.16;15270171;19;20403;-59
2022/10/14 06:22:05;;;;;;;10.38;7.03;;;;;;;11.94;100.00;98330.63;15268961;19;20022;-57
2022/10/14 06:27:32;;;;;;;8.13;6.55;;;;;;;11.94;100.00;98337.91;15268097;19;20490;-58
2022/10/14 06:33:03;;;;;;;6.93;6.10;;;;;;;11.97;100.00;98341.09;15261244;19;20011;-56
2022/10/14 06:38:28;;;;;;;10.70;6.37;;;;;;;12.00;100.00;98348.03;15261624;19;20014;-56
2022/10/14 06:43:56;;;;;;;7.88;5.97;;;;;;;12.00;100.00;98343.47;15268241;19;20018;-57
2022/10/14 06:49:20;;;;;;;8.77;5.80;;;;;;;12.04;100.00;98343.97;15275659;19;20051;-57
2022/10/14 06:54:45;;;;;;;5.93;5.32;;;;;;;12.13;100.00;98350.19;15285634;19;20350;-56
2022/10/14 07:00:14;;;;;;;7.00;5.30;;;;;;;12.20;100.00;98344.94;15278144;19;20042;-55
2022/10/14 07:05:38;;;;;;;7.43;5.40;;;;;;;12.24;100.00;98341.72;15277632;19;20038;-58
2022/10/14 07:11:03;;;;;;;7.65;5.60;;;;;;;12.28;100.00;98350.31;15277328;19;20040;-55
2022/10/14 07:16:30;;;;;;;6.63;5.07;;;;;;;12.28;100.00;98350.31;15280496;19;20026;-56
2022/10/14 07:21:56;;;;;;;6.95;5.15;;;;;;;12.37;100.00;98345.72;15280759;19;20014;-58
2022/10/14 07:27:20;;;;;;;7.80;4.95;;;;;;;12.43;100.00;98342.31;15280479;19;20733;-58
2022/10/14 07:32:47;;;;;;;5.50;4.53;;;;;;;12.48;100.00;98335.38;15278394;19;20010;-59
2022/10/14 07:38:12;;;;;;;5.95;4.43;;;;;;;12.60;100.00;98345.78;15273672;19;20484;-60
2022/10/14 07:43:37;;;;;;;4.80;3.58;;;;;;;12.66;100.00;98323.47;15275404;19;20484;-59
2022/10/14 07:49:06;;;;;;;4.22;3.53;;;;;;;12.78;100.00;98321.19;15277209;19;20038;-56
2022/10/14 07:54:32;;;;;;;6.60;3.40;;;;;;;12.85;100.00;98330.31;15278623;19;20490;-55
2022/10/14 07:59:57;;;;;;;5.88;3.40;;;;;;;12.92;100.00;98335.84;15272150;19;20029;-59
2022/10/14 08:05:26;;;;;;;5.55;3.05;;;;;;;12.99;100.00;98336.78;15278977;19;20036;-54
2022/10/14 08:10:55;;;;;;;3.60;2.40;;;;;;;13.07;100.00;98330.50;15267715;19;20022;-57
2022/10/14 08:16:22;;;;;;;6.53;2.65;;;;;;;13.15;100.00;98335.84;15274565;19;20018;-59
2022/10/14 08:21:50;;;;;;;3.65;2.55;;;;;;;13.23;100.00;98333.06;15277301;19;20018;-58
2022/10/14 08:27:16;;;;;;;4.25;2.30;;;;;;;13.30;100.00;98325.06;15275281;19;20026;-58
2022/10/14 08:32:48;;;;;;;3.22;2.38;;;;;;;13.40;100.00;98319.44;15274698;19;20015;-56
2022/10/14 08:38:16;;;;;;;2.78;1.98;;;;;;;13.53;100.00;98313.41;15276134;19;20034;-57
2022/10/14 08:43:44;;;;;;;6.43;2.00;;;;;;;13.64;100.00;98312.13;15275575;19;20444;-58
2022/10/14 08:49:19;;;;;;;4.30;1.90;;;;;;;13.72;100.00;98314.75;15273901;19;20015;-57
2022/10/14 08:54:48;;;;;;;4.10;1.70;;;;;;;13.89;100.00;98309.19;15280043;19;20015;-57
2022/10/14 09:00:15;;;;;;;1.83;1.42;;;;;;;14.00;100.00;98311.44;15268986;19;20018;-58
2022/10/14 09:05:40;;;;;;;2.35;1.50;;;;;;;14.09;100.00;98301.34;15278669;19;20034;-56
2022/10/14 09:11:09;;;;;;;3.38;1.50;;;;;;;14.22;100.00;98304.25;15269458;19;20018;-58
2022/10/14 09:16:37;;;;;;;1.63;1.38;;;;;;;14.36;100.00;98304.41;15280294;19;20035;-56
2022/10/14 09:22:02;;;;;;;1.20;1.10;;;;;;;14.40;100.00;98295.72;15277308;19;20018;-58
2022/10/14 09:27:32;;;;;;;6.70;1.63;;;;;;;14.61;100.00;98280.53;15268792;19;20014;-58
2022/10/14 09:33:04;;;;;;;1.70;1.30;;;;;;;14.74;100.00;98291.56;15272238;19;20033;-58
2022/10/14 09:38:30;;;;;;;1.50;0.90;;;;;;;14.87;100.00;98269.16;15266551;19;20022;-58
2022/10/14 09:44:26;;;;;;;1.10;0.73;;;;;;;15.04;100.00;98268.94;15270403;19;20071;-58
2022/10/14 09:49:54;;;;;;;0.80;0.80;;;;;;;15.25;100.00;98273.47;15271255;19;20022;-58
2022/10/14 09:55:28;;;;;;;1.00;0.70;;;;;;;15.38;100.00;98268.16;15279272;19;20090;-59
2022/10/14 10:00:59;;;;;;;1.27;0.77;;;;;;;15.46;100.00;98263.66;15270895;19;20015;-58
2022/10/14 10:06:33;;;;;;;1.20;0.93;;;;;;;15.54;100.00;98268.94;15274207;19;20094;-58
2022/10/14 10:11:57;;;;;;;0.90;0.90;;;;;;;15.76;100.00;98260.72;15270872;19;20018;-60
2022/10/14 10:17:28;;;;;;;3.55;0.90;;;;;;;15.77;100.00;98267.84;15265020;19;20021;-59
2022/10/14 10:22:53;;;;;;;1.08;0.90;;;;;;;15.78;100.00;98253.22;15275367;19;20039;-59
2022/10/14 10:28:30;;;;;;;1.38;0.80;;;;;;;15.82;100.00;98249.91;15268427;19;20019;-57
2022/10/14 10:34:13;;;;;;;1.10;0.70;;;;;;;15.90;100.00;98242.66;15270959;19;20385;-59
2022/10/14 10:39:49;;;;;;;1.45;0.80;;;;;;;16.02;100.00;98243.78;15262611;19;20503;-58
2022/10/14 10:45:23;;;;;;;0.80;0.80;;;;;;;15.99;100.00;98242.28;15278558;19;20034;-57
2022/10/14 10:51:02;;;;;;;1.25;0.80;;;;;;;15.94;100.00;98225.75;15266950;19;20031;-57
2022/10/14 10:56:38;;;;;;;0.73;0.60;;;;;;;15.99;100.00;98230.59;15276562;19;20015;-59
2022/10/14 11:02:25;;;;;;;0.80;0.70;;;;;;;15.95;100.00;98219.28;15271139;19;20010;-57
2022/10/14 11:13:48;;;;;;;0.75;0.70;;;;;;;16.26;100.00;98214.41;15272156;19;20014;-57
2022/10/14 11:19:18;;;;;;;0.60;0.60;;;;;;;16.38;100.00;98206.50;15263479;19;20023;-58
2022/10/14 11:24:57;;;;;;;0.47;0.45;;;;;;;16.43;100.00;98198.56;15271175;19;20029;-56
2022/10/14 11:30:25;;;;;;;1.00;0.50;;;;;;;16.59;100.00;98186.47;15259952;19;20086;-58
2022/10/14 11:35:59;;;;;;;2.15;0.60;;;;;;;16.56;100.00;98185.00;15285335;19;20014;-58
2022/10/14 11:41:39;;;;;;;0.55;0.50;;;;;;;16.57;100.00;98170.38;15281777;19;20018;-58
2022/10/14 11:47:09;;;;;;;0.40;0.40;;;;;;;16.56;100.00;98165.97;15286490;19;20022;-57
2022/10/14 11:52:37;;;;;;;1.30;0.40;;;;;;;16.71;100.00;98154.91;15280866;19;20018;-58
2022/10/14 11:58:08;;;;;;;0.88;0.45;;;;;;;16.86;100.00;98156.59;15276408;19;20021;-57
2022/10/14 12:03:42;;;;;;;0.50;0.45;;;;;;;17.05;100.00;98144.06;15284595;19;20057;-58
2022/10/14 12:09:13;;;;;;;0.40;0.40;;;;;;;17.04;100.00;98145.09;15277325;19;20021;-59
2022/10/14 12:14:42;;;;;;;0.80;0.40;;;;;;;17.09;100.00;98135.25;15285012;19;20015;-57
2022/10/14 12:20:21;;;;;;;0.70;0.50;;;;;;;17.18;100.00;98127.72;15273621;19;20022;-59
2022/10/14 12:25:56;;;;;;;0.90;0.55;;;;;;;17.50;100.00;98118.88;15277651;19;20478;-56
2022/10/14 12:31:36;;;;;;;0.60;0.45;;;;;;;17.50;100.00;98122.41;15275184;19;20367;-56
2022/10/14 12:37:00;;;;;;;2.38;0.40;;;;;;;17.67;100.00;98117.34;15283101;19;20022;-57
2022/10/14 12:42:25;;;;;;;0.50;0.50;;;;;;;17.54;100.00;98110.06;15278454;19;20015;-55
2022/10/14 12:47:53;;;;;;;5.68;0.60;;;;;;;17.60;100.00;98112.97;15290331;19;20368;-59
2022/10/14 12:53:25;;;;;;;1.08;0.60;;;;;;;17.52;100.00;98109.44;15279796;19;20014;-58
2022/10/14 12:59:02;;;;;;;0.85;0.60;;;;;;;17.47;100.00;98113.84;15269255;19;20343;-58
2022/10/14 13:04:34;;;;;;;3.33;0.75;;;;;;;17.38;100.00;98099.63;15281292;19;20007;-57
2022/10/14 13:10:34;;;;;;;1.45;0.77;;;;;;;17.34;100.00;98093.75;15276801;19;20430;-57
2022/10/14 13:16:05;;;;;;;0.90;0.75;;;;;;;17.32;100.00;98095.88;15278027;19;20029;-59
2022/10/14 13:21:59;;;;;;;2.67;0.80;;;;;;;17.33;100.00;98086.66;15282410;19;20031;-59
2022/10/14 13:27:35;;;;;;;1.23;0.77;;;;;;;17.23;100.00;98078.09;15277030;19;20022;-58
2022/10/14 13:33:06;;;;;;;0.95;0.73;;;;;;;17.00;100.00;98079.38;15273219;19;20014;-60
2022/10/14 13:38:35;;;;;;;1.98;0.90;;;;;;;17.05;100.00;98074.13;15279209;19;20007;-59
2022/10/14 13:44:03;;;;;;;0.80;0.73;;;;;;;17.28;100.00;98074.72;15337834;19;20105;-59
2022/10/14 13:49:36;;;;;;;0.90;0.80;;;;;;;17.52;100.00;98063.13;15313215;19;20018;-58
2022/10/14 13:55:25;;;;;;;1.98;0.80;;;;;;;17.76;100.00;98063.44;15270191;19;20026;-59
2022/10/14 14:01:03;;;;;;;1.25;0.60;;;;;;;17.46;100.00;98061.28;15269619;19;20020;-59
2022/10/14 14:06:31;;;;;;;1.33;0.82;;;;;;;17.24;100.00;98058.81;15273280;19;20010;-60
2022/10/14 14:12:21;;;;;;;3.20;0.82;;;;;;;17.21;100.00;98042.06;15264932;19;20010;-59
2022/10/14 14:17:45;;;;;;;3.47;0.75;;;;;;;17.12;100.00;98036.00;15268764;19;20015;-58
2022/10/14 14:23:14;;;;;;;1.40;0.70;;;;;;;17.11;100.00;98034.34;15268387;19;20017;-59
2022/10/14 14:28:44;;;;;;;1.27;0.70;;;;;;;17.19;100.00;98039.56;15269632;19;20037;-59
2022/10/14 14:34:15;;;;;;;1.52;0.70;;;;;;;17.28;100.00;98023.00;15257734;19;20374;-59
2022/10/14 14:39:41;;;;;;;0.80;0.60;;;;;;;17.25;100.00;98025.09;15262909;19;20018;-59
2022/10/14 14:45:12;;;;;;;0.85;0.60;;;;;;;17.33;100.00;98020.47;15249402;19;20025;-58
2022/10/14 14:50:41;;;;;;;1.70;0.80;;;;;;;17.32;100.00;98025.06;15261369;19;20021;-58
2022/10/14 14:56:10;;;;;;;1.98;1.00;;;;;;;17.21;100.00;98023.88;15267882;19;20037;-58
2022/10/14 15:01:37;;;;;;;2.40;0.93;;;;;;;16.99;100.00;98022.47;15263779;19;20014;-57
2022/10/14 15:07:10;;;;;;;1.60;0.90;;;;;;;16.89;100.00;98015.50;15266173;19;20015;-55
2022/10/14 15:12:41;;;;;;;1.02;0.80;;;;;;;16.76;100.00;98004.66;15278809;19;20288;-57
2022/10/14 15:18:23;;;;;;;1.38;0.70;;;;;;;16.60;100.00;97998.63;15279596;19;20031;-58
2022/10/14 15:24:02;;;;;;;1.20;0.90;;;;;;;16.51;100.00;97988.16;15285907;19;20638;-57
2022/10/14 15:29:29;;;;;;;1.77;0.88;;;;;;;16.45;100.00;97982.53;15280739;19;20014;-56
2022/10/14 15:35:06;;;;;;;1.20;0.82;;;;;;;16.37;100.00;97984.63;15280055;19;20014;-58
2022/10/14 15:40:33;;;;;;;1.70;0.90;;;;;;;16.22;100.00;97968.53;15277458;19;20027;-56
2022/10/14 15:51:45;;;;;;;0.88;0.68;;;;;;;16.14;100.00;97969.56;15274799;19;20044;-51
2022/10/14 15:57:11;;;;;;;1.92;0.80;;;;;;;16.04;100.00;97952.84;15278397;19;20346;-55
2022/10/14 16:02:36;;;;;;;1.02;0.77;;;;;;;15.97;100.00;97940.09;15280875;19;20019;-52
2022/10/14 16:08:04;;;;;;;3.03;1.00;;;;;;;15.89;100.00;97953.03;15279250;19;20013;-60
2022/10/14 16:13:30;;;;;;;7.53;1.10;;;;;;;15.86;100.00;97952.41;15278255;19;20118;-55
2022/10/14 16:18:54;;;;;;;3.25;1.00;;;;;;;15.80;100.00;97949.66;15278506;19;20018;-59
2022/10/14 16:24:18;;;;;;;1.27;0.90;;;;;;;15.73;100.00;97936.06;15278253;19;20010;-56
2022/10/14 16:29:46;;;;;;;1.70;0.90;;;;;;;15.62;100.00;97929.34;15272172;19;20038;-57
2022/10/14 16:35:17;;;;;;;1.90;1.08;;;;;;;15.54;100.00;97933.09;15271136;19;20026;-58
2022/10/14 16:40:44;;;;;;;1.85;1.10;;;;;;;15.46;100.00;97929.75;15276143;19;20010;-58
2022/10/14 16:46:10;;;;;;;1.35;1.00;;;;;;;15.37;100.00;97938.06;15273490;19;20010;-58
2022/10/14 16:51:35;;;;;;;2.80;1.20;;;;;;;15.32;100.00;97937.84;15274860;19;20006;-55
2022/10/14 16:57:02;;;;;;;3.08;1.10;;;;;;;15.24;100.00;97938.00;15275221;19;20029;-57
2022/10/14 17:02:30;;;;;;;2.25;1.30;;;;;;;15.18;100.00;97933.41;15277753;19;20016;-55
2022/10/14 17:07:54;;;;;;;2.97;1.25;;;;;;;15.14;100.00;97940.28;15272979;19;20011;-58
2022/10/14 17:13:22;;;;;;;2.45;1.38;;;;;;;15.07;100.00;97932.09;15271020;19;20010;-56
2022/10/14 17:18:46;;;;;;;3.58;1.50;;;;;;;15.02;100.00;97935.44;15265002;19;20381;-55
2022/10/14 17:24:11;;;;;;;2.38;1.30;;;;;;;14.97;100.00;97924.38;15274479;19;20018;-57
2022/10/14 17:29:38;;;;;;;2.70;1.27;;;;;;;14.94;100.00;97930.19;15265216;19;20022;-55
2022/10/14 17:35:09;;;;;;;2.88;1.33;;;;;;;14.90;100.00;97924.34;15272035;19;20022;-55
2022/10/14 17:40:34;;;;;;;2.65;1.35;;;;;;;14.85;100.00;97923.25;15266408;19;20018;-57
2022/10/14 17:46:01;;;;;;;1.70;1.20;;;;;;;14.81;100.00;97922.84;15270560;19;20034;-55
2022/10/14 17:51:27;;;;;;;2.88;1.40;;;;;;;14.75;100.00;97918.19;15269314;19;20512;-59
2022/10/14 17:56:51;;;;;;;5.80;1.50;;;;;;;14.73;100.00;97926.53;15271611;19;20908;-58
2022/10/14 18:02:20;;;;;;;2.58;1.25;;;;;;;14.72;100.00;97913.16;15266616;19;20556;-57
2022/10/14 18:07:45;;;;;;;2.67;1.40;;;;;;;14.67;100.00;97904.78;15264559;19;20054;-58
2022/10/14 18:13:12;;;;;;;3.45;1.60;;;;;;;14.65;100.00;97896.84;15265624;19;20011;-55
2022/10/14 18:18:39;;;;;;;2.97;1.40;;;;;;;14.60;100.00;97893.91;15260257;19;20425;-58
2022/10/14 18:24:05;;;;;;;2.03;1.30;;;;;;;14.56;100.00;97887.19;15274493;19;20018;-58
2022/10/14 18:29:29;;;;;;;3.58;1.70;;;;;;;14.51;100.00;97884.25;15259375;19;20027;-58
2022/10/14 18:35:04;;;;;;;2.40;1.55;;;;;;;14.50;100.00;97888.84;15269515;19;20014;-57
2022/10/14 18:40:29;;;;;;;3.45;1.60;;;;;;;14.46;100.00;97885.69;15264527;19;20014;-59
2022/10/14 18:45:53;;;;;;;3.13;1.60;;;;;;;14.44;100.00;97878.81;15283021;19;20019;-56
2022/10/14 18:51:24;;;;;;;2.72;1.52;;;;;;;14.44;100.00;97867.97;15274555;19;20484;-59
2022/10/14 18:56:49;;;;;;;3.33;1.80;;;;;;;14.44;100.00;97868.78;15285758;19;20536;-56
2022/10/14 19:02:15;;;;;;;3.30;1.73;;;;;;;14.47;100.00;97872.97;15282870;19;20011;-56
2022/10/14 19:07:42;;;;;;;5.32;1.90;;;;;;;14.43;100.00;97877.94;15279524;19;20019;-57
2022/10/14 19:13:07;;;;;;;4.40;1.88;;;;;;;14.45;100.00;97865.03;15276946;19;20735;-61
2022/10/14 19:18:32;;;;;;;3.38;1.70;;;;;;;14.38;100.00;97852.50;15278071;19;20007;-61
2022/10/14 19:24:01;;;;;;;4.15;1.90;;;;;;;14.33;100.00;97851.25;15278450;19;20029;-61
2022/10/14 19:29:25;;;;;;;2.75;1.70;;;;;;;14.29;100.00;97857.22;15280439;19;20015;-58
2022/10/14 19:34:56;;;;;;;2.47;1.60;;;;;;;14.30;100.00;97848.91;15276774;19;20015;-58
2022/10/14 19:40:23;;;;;;;3.67;1.90;;;;;;;14.29;100.00;97843.69;15277428;19;20007;-58
2022/10/14 19:45:48;;;;;;;3.75;1.92;;;;;;;14.29;100.00;97835.56;15285748;19;20427;-57
2022/10/14 19:51:13;;;;;;;2.45;1.88;;;;;;;14.25;100.00;97818.03;15280935;19;20035;-58
2022/10/14 19:56:41;;;;;;;2.47;1.80;;;;;;;14.25;100.00;97809.91;15275006;19;20289;-59
2022/10/14 20:02:07;;;;;;;3.35;2.10;;;;;;;14.22;100.00;97800.31;15284155;19;20512;-58
2022/10/14 20:07:31;;;;;;;3.22;2.00;;;;;;;14.17;100.00;97800.06;15281566;19;20010;-55
2022/10/14 20:13:00;;;;;;;3.70;2.17;;;;;;;14.16;100.00;97801.97;15273050;19;20019;-58
2022/10/14 20:18:24;;;;;;;2.75;2.13;;;;;;;14.12;100.00;97811.50;15274937;19;20033;-56
2022/10/14 20:23:49;;;;;;;3.92;2.20;;;;;;;14.13;100.00;97807.75;15277480;19;20025;-56
2022/10/14 20:29:16;;;;;;;3.70;2.20;;;;;;;14.09;100.00;97811.06;15268741;19;20026;-57
2022/10/14 20:34:41;;;;;;;2.58;2.20;;;;;;;14.08;100.00;97814.81;15275397;19;20516;-53
2022/10/14 20:40:05;;;;;;;2.90;2.10;;;;;;;14.08;100.00;97815.63;15265491;19;20010;-56
2022/10/14 20:45:40;;;;;;;3.08;2.10;;;;;;;14.06;100.00;97808.75;15279021;19;20020;-57
2022/10/14 20:51:06;;;;;;;3.83;2.20;;;;;;;14.07;100.00;97802.31;15272662;19;20023;-56
2022/10/14 20:56:31;;;;;;;4.93;2.25;;;;;;;14.01;100.00;97802.06;15275087;19;20018;-57
2022/10/14 21:01:58;;;;;;;3.10;2.03;;;;;;;14.05;100.00;97809.78;15268031;19;20022;-55
2022/10/14 21:07:23;;;;;;;2.28;2.08;;;;;;;14.03;100.00;97801.88;15274319;19;20025;-59
2022/10/14 21:12:48;;;;;;;2.80;2.20;;;;;;;14.01;100.00;97803.94;15275255;19;20029;-52
2022/10/14 21:18:16;;;;;;;5.13;2.40;;;;;;;14.00;100.00;97797.66;15275519;19;20469;-58
2022/10/14 21:23:41;;;;;;;2.85;2.00;;;;;;;14.02;100.00;97778.53;15274379;19;20022;-56
2022/10/14 21:29:07;;;;;;;1.92;1.70;;;;;;;14.02;100.00;97779.34;15264680;19;20026;-56
2022/10/14 21:34:36;;;;;;;2.22;1.88;;;;;;;14.05;100.00;97766.44;15265419;19;20022;-52
2022/10/14 21:39:59;;;;;;;2.05;1.67;;;;;;;14.02;100.00;97765.00;15264415;19;20026;-55
2022/10/14 21:45:24;;;;;;;2.42;1.80;;;;;;;14.03;100.00;97764.78;15274592;19;20373;-55
2022/10/14 21:50:51;;;;;;;2.35;1.60;;;;;;;14.01;100.00;97755.19;15268622;19;20025;-54
2022/10/14 21:56:17;;;;;;;1.80;1.65;;;;;;;14.02;100.00;97746.84;15270566;19;20483;-55
2022/10/14 22:01:42;;;;;;;3.78;1.70;;;;;;;14.01;100.00;97738.94;15267154;19;20038;-58
2022/10/14 22:07:10;;;;;;;1.98;1.42;;;;;;;14.00;100.00;97735.38;15268425;19;20096;-55
2022/10/14 22:12:33;;;;;;;2.63;1.60;;;;;;;13.99;100.00;97746.44;15266537;19;20476;-56
2022/10/14 22:17:58;;;;;;;2.10;1.48;;;;;;;13.98;100.00;97731.22;15271222;19;20015;-57
2022/10/14 22:23:25;;;;;;;2.50;1.60;;;;;;;13.98;100.00;97733.91;15272478;19;20406;-59
2022/10/14 22:28:50;;;;;;;1.65;1.30;;;;;;;13.96;100.00;97722.44;15261365;19;20027;-56
2022/10/14 22:34:23;;;;;;;2.88;1.30;;;;;;;13.95;100.00;97723.47;15265487;19;20468;-56
2022/10/14 22:39:51;;;;;;;2.05;1.17;;;;;;;13.96;100.00;97717.03;15262309;19;20015;-57
2022/10/14 22:45:17;;;;;;;1.73;1.00;;;;;;;13.94;100.00;97714.53;15270510;19;20027;-57
2022/10/14 22:50:42;;;;;;;1.05;0.98;;;;;;;13.93;100.00;97706.63;15262187;19;20028;-57
2022/10/14 22:56:10;;;;;;;1.38;1.02;;;;;;;13.92;100.00;97707.66;15267552;19;20025;-57
2022/10/14 23:01:35;;;;;;;1.10;0.98;;;;;;;13.95;100.00;97710.78;15263329;19;20018;-54
2022/10/14 23:06:59;;;;;;;1.20;1.10;;;;;;;13.94;100.00;97703.69;15266267;19;20015;-58
2022/10/14 23:12:27;;;;;;;1.10;1.00;;;;;;;13.96;100.00;97703.50;15262902;19;20015;-57
2022/10/14 23:17:51;;;;;;;1.13;1.00;;;;;;;13.97;100.00;97705.16;15266329;19;20369;-58
2022/10/14 23:23:16;;;;;;;1.10;1.00;;;;;;;13.96;100.00;97708.91;15264184;19;20082;-57
2022/10/14 23:28:43;;;;;;;1.25;0.90;;;;;;;13.97;100.00;97699.75;15271179;19;20490;-54
2022/10/14 23:34:17;;;;;;;1.13;0.98;;;;;;;13.95;100.00;97707.22;15276571;19;20010;-54
2022/10/14 23:39:42;;;;;;;1.58;0.98;;;;;;;13.97;100.00;97706.00;15272133;19;20783;-52
2022/10/14 23:45:10;;;;;;;2.58;1.02;;;;;;;13.97;100.00;97700.59;15280768;19;20379;-53
2022/10/14 23:50:35;;;;;;;1.13;0.80;;;;;;;13.94;100.00;97695.56;15278588;19;20022;-55
2022/10/14 23:56:00;;;;;;;1.73;1.10;;;;;;;13.94;100.00;97695.56;15280837;19;20495;-54
